Time;durP1;ratioP1;P1;durP2;ratioP2;P2;SDS_P1;SDS_P2;PMS_P1;PMS_P2;Temp;Humidity;BMP_temperature;BMP_pressure;BME280_temperature;BME280_humidity;BME280_pressure;Samples;Min_cycle;Max_cycle;Signal;HPM_P1;HPM_P2
2023/05/03 00:02:10;;;;;;;10.10;6.27;;;10.50;99.90;;;;;;4954536;28;20574;-72
2023/05/03 00:04:37;;;;;;;6.10;5.50;;;10.50;99.90;;;;;;4954595;28;20219;-72
2023/05/03 00:07:02;;;;;;;8.70;6.03;;;10.50;99.90;;;;;;4954409;28;20811;-72
2023/05/03 00:09:28;;;;;;;9.43;6.27;;;10.50;99.90;;;;;;4954273;28;20412;-72
2023/05/03 00:11:54;;;;;;;5.93;5.40;;;10.40;99.90;;;;;;4954419;28;20216;-72
2023/05/03 00:14:20;;;;;;;10.33;5.10;;;10.40;99.90;;;;;;4954328;28;20419;-72
2023/05/03 00:16:45;;;;;;;6.30;5.70;;;10.40;99.90;;;;;;4953530;28;20215;-72
2023/05/03 00:19:11;;;;;;;6.53;5.87;;;10.30;99.90;;;;;;4953107;28;20177;-72
2023/05/03 00:21:36;;;;;;;7.23;6.53;;;10.40;99.90;;;;;;4953608;28;20180;-72
2023/05/03 00:24:02;;;;;;;6.63;5.93;;;10.40;99.90;;;;;;4953344;28;20324;-72
2023/05/03 00:26:28;;;;;;;8.30;6.20;;;10.40;99.90;;;;;;4953338;28;20193;-72
2023/05/03 00:28:53;;;;;;;7.30;6.60;;;10.30;99.90;;;;;;4952957;28;20424;-72
2023/05/03 00:31:19;;;;;;;8.00;6.30;;;10.30;99.90;;;;;;4953316;28;20191;-72
2023/05/03 00:33:44;;;;;;;7.70;6.20;;;10.30;99.90;;;;;;4953294;28;20207;-72
2023/05/03 00:36:11;;;;;;;5.93;5.43;;;10.20;99.90;;;;;;4953238;28;20240;-72
2023/05/03 00:38:38;;;;;;;6.13;5.50;;;10.10;99.90;;;;;;4952930;28;20604;-72
2023/05/03 00:41:04;;;;;;;7.10;6.40;;;10.10;99.90;;;;;;4953153;28;20432;-72
2023/05/03 00:43:30;;;;;;;10.03;5.30;;;10.10;99.90;;;;;;4972163;28;20970;-72
2023/05/03 00:45:57;;;;;;;5.67;5.17;;;10.10;99.90;;;;;;4972248;28;20207;-72
2023/05/03 00:48:23;;;;;;;5.87;5.37;;;10.00;99.90;;;;;;4972073;28;20426;-72
2023/05/03 00:50:49;;;;;;;14.00;7.10;;;10.00;99.90;;;;;;4972350;28;20511;-72
2023/05/03 00:53:15;;;;;;;8.73;7.83;;;10.00;99.90;;;;;;4972414;28;20168;-72
2023/05/03 00:55:42;;;;;;;6.07;5.57;;;9.90;99.90;;;;;;4987303;28;20461;-72
2023/05/03 00:58:07;;;;;;;6.50;5.60;;;9.90;99.90;;;;;;4991640;28;20458;-73
2023/05/03 01:00:33;;;;;;;7.10;6.13;;;9.90;99.90;;;;;;4991387;28;20469;-72
2023/05/03 01:02:58;;;;;;;9.40;6.50;;;9.90;99.90;;;;;;4991793;28;20176;-72
2023/05/03 01:05:27;;;;;;;7.83;6.23;;;9.80;99.90;;;;;;4991633;28;20318;-72
2023/05/03 01:08:14;;;;;;;11.30;6.50;;;9.80;99.90;;;;;;4993775;28;20179;-72
2023/05/03 01:10:54;;;;;;;8.47;6.47;;;9.70;99.90;;;;;;4995088;28;20419;-72
2023/05/03 01:13:33;;;;;;;7.37;6.20;;;9.70;99.90;;;;;;4994906;28;20999;-72
2023/05/03 01:16:04;;;;;;;6.87;6.17;;;9.70;99.90;;;;;;4959755;28;1026603;-72
2023/05/03 01:18:33;;;;;;;7.53;6.17;;;9.70;99.90;;;;;;4995972;28;20203;-72
2023/05/03 01:21:01;;;;;;;8.13;6.87;;;9.70;99.90;;;;;;4996162;28;20443;-72
2023/05/03 01:23:42;;;;;;;6.57;5.80;;;9.60;99.90;;;;;;4996160;28;20485;-72
2023/05/03 01:26:23;;;;;;;8.07;7.20;;;9.50;99.90;;;;;;4996008;28;20466;-72
2023/05/03 01:28:49;;;;;;;8.50;6.60;;;9.40;99.90;;;;;;4996019;28;20958;-72
2023/05/03 01:31:25;;;;;;;7.30;6.60;;;9.30;99.90;;;;;;4995867;28;20466;-72
2023/05/03 01:34:15;;;;;;;8.30;6.50;;;9.30;99.90;;;;;;4995919;28;20422;-72
2023/05/03 01:36:43;;;;;;;8.73;6.63;;;9.20;99.90;;;;;;4995786;28;20948;-72
2023/05/03 01:39:15;;;;;;;7.70;6.50;;;9.20;99.90;;;;;;4995631;28;20509;-72
2023/05/03 01:41:41;;;;;;;10.00;6.40;;;9.20;99.90;;;;;;4995799;28;20426;-72
2023/05/03 01:44:08;;;;;;;7.93;6.47;;;9.20;99.90;;;;;;4995694;28;20446;-72
2023/05/03 01:46:33;;;;;;;6.87;6.23;;;9.20;99.90;;;;;;4995492;28;20438;-72
2023/05/03 01:48:59;;;;;;;7.23;6.10;;;9.10;99.90;;;;;;4995359;28;20967;-72
2023/05/03 01:51:24;;;;;;;8.90;7.20;;;9.10;99.90;;;;;;4995640;28;20172;-72
2023/05/03 01:53:50;;;;;;;6.57;5.93;;;9.10;99.90;;;;;;4995558;28;20672;-72
2023/05/03 01:56:15;;;;;;;8.30;6.93;;;9.10;99.90;;;;;;4995472;28;20187;-72
2023/05/03 01:58:41;;;;;;;7.43;5.77;;;9.00;99.90;;;;;;4995185;28;20321;-72
2023/05/03 02:01:06;;;;;;;9.10;7.20;;;9.00;99.90;;;;;;4995291;28;20635;-72
2023/05/03 02:03:32;;;;;;;9.70;6.73;;;8.90;99.90;;;;;;4995358;28;20171;-72
2023/05/03 02:05:58;;;;;;;6.87;6.17;;;8.80;99.90;;;;;;4995308;28;20309;-72
2023/05/03 02:08:23;;;;;;;9.00;6.73;;;8.80;99.90;;;;;;4995162;28;20172;-72
2023/05/03 02:10:49;;;;;;;11.43;7.37;;;8.80;99.90;;;;;;4995325;28;20649;-72
2023/05/03 02:13:15;;;;;;;8.93;6.23;;;8.70;99.90;;;;;;4993955;28;20168;-72
2023/05/03 02:15:40;;;;;;;8.90;7.33;;;8.70;99.90;;;;;;4994896;28;20246;-72
2023/05/03 02:18:07;;;;;;;8.77;7.50;;;8.70;99.90;;;;;;4995131;28;20757;-72
2023/05/03 02:20:36;;;;;;;8.60;6.13;;;8.60;99.90;;;;;;4994856;28;20172;-72
2023/05/03 02:23:04;;;;;;;9.57;7.33;;;8.60;99.90;;;;;;4995046;28;20422;-72
2023/05/03 02:25:30;;;;;;;7.60;6.40;;;8.60;99.90;;;;;;4994842;28;20462;-72
2023/05/03 02:27:56;;;;;;;8.77;6.90;;;8.60;99.90;;;;;;4994870;28;20493;-72
2023/05/03 02:30:21;;;;;;;9.30;7.20;;;8.60;99.90;;;;;;4994487;28;20259;-72
2023/05/03 02:32:47;;;;;;;12.60;8.67;;;8.50;99.90;;;;;;4994848;28;20203;-72
2023/05/03 02:35:12;;;;;;;11.57;8.20;;;8.50;99.90;;;;;;4994726;28;20183;-72
2023/05/03 02:37:38;;;;;;;9.23;7.50;;;8.50;99.90;;;;;;4994740;28;20175;-72
2023/05/03 02:40:04;;;;;;;9.93;7.03;;;8.50;99.90;;;;;;4994452;28;20223;-72
2023/05/03 02:42:30;;;;;;;8.00;6.70;;;8.50;99.90;;;;;;4994728;28;20179;-72
2023/05/03 02:44:55;;;;;;;6.80;6.10;;;8.40;99.90;;;;;;4994466;28;20451;-72
2023/05/03 02:47:21;;;;;;;8.17;7.37;;;8.40;99.90;;;;;;4994552;28;20564;-72
2023/05/03 02:49:47;;;;;;;8.43;6.77;;;8.40;99.90;;;;;;4994267;28;20208;-72
2023/05/03 02:52:12;;;;;;;11.77;7.80;;;8.30;99.90;;;;;;4994497;28;20175;-72
2023/05/03 02:54:38;;;;;;;10.27;7.67;;;8.30;99.90;;;;;;4994507;28;20179;-72
2023/05/03 02:57:03;;;;;;;7.70;6.87;;;8.20;99.90;;;;;;4994311;28;20203;-72
2023/05/03 02:59:29;;;;;;;10.40;8.37;;;8.20;99.90;;;;;;4993962;28;20708;-72
2023/05/03 03:01:54;;;;;;;8.43;7.03;;;8.10;99.90;;;;;;4994640;28;20540;-72
2023/05/03 03:04:20;;;;;;;9.80;7.77;;;8.10;99.90;;;;;;4994335;28;20176;-72
2023/05/03 03:06:45;;;;;;;8.57;7.77;;;8.00;99.90;;;;;;4994243;28;20187;-72
2023/05/03 03:09:11;;;;;;;10.90;8.50;;;7.90;99.90;;;;;;4993896;28;20179;-72
2023/05/03 03:11:37;;;;;;;10.87;7.70;;;7.90;99.90;;;;;;4994270;28;20518;-72
2023/05/03 03:14:02;;;;;;;10.80;8.30;;;7.90;99.90;;;;;;4993961;28;20183;-72
2023/05/03 03:16:28;;;;;;;12.57;9.23;;;8.00;99.90;;;;;;4993876;28;20211;-72
2023/05/03 03:18:54;;;;;;;10.53;8.43;;;7.90;99.90;;;;;;4993833;28;20179;-72
2023/05/03 03:21:19;;;;;;;11.50;8.40;;;7.80;99.90;;;;;;4993958;28;20567;-72
2023/05/03 03:23:45;;;;;;;10.10;8.87;;;7.90;99.90;;;;;;4993869;28;20176;-72
2023/05/03 03:26:11;;;;;;;11.33;7.77;;;7.90;99.90;;;;;;4993725;28;20265;-72
2023/05/03 03:28:36;;;;;;;10.47;8.57;;;7.90;99.90;;;;;;4993419;28;20163;-72
2023/05/03 03:31:02;;;;;;;14.40;8.60;;;7.90;99.90;;;;;;4993132;28;20419;-72
2023/05/03 03:33:27;;;;;;;12.53;8.43;;;7.90;99.90;;;;;;4993865;28;20168;-72
2023/05/03 03:35:53;;;;;;;10.50;7.83;;;7.90;99.90;;;;;;4993691;28;20735;-72
2023/05/03 03:38:18;;;;;;;10.07;8.07;;;7.90;99.90;;;;;;4993633;28;20271;-72
2023/05/03 03:40:44;;;;;;;16.33;8.17;;;7.90;99.90;;;;;;4993691;28;20703;-72
2023/05/03 03:43:10;;;;;;;9.50;8.00;;;7.90;99.90;;;;;;4993649;28;20171;-72
2023/05/03 03:45:35;;;;;;;11.47;7.80;;;7.80;99.90;;;;;;4993491;28;20204;-72
2023/05/03 03:48:01;;;;;;;9.70;8.67;;;7.80;99.90;;;;;;4993453;28;20251;-72
2023/05/03 03:50:26;;;;;;;9.73;8.20;;;7.80;99.90;;;;;;4993200;28;20222;-72
2023/05/03 03:52:52;;;;;;;9.13;7.17;;;7.70;99.90;;;;;;4993422;28;20176;-72
2023/05/03 03:55:17;;;;;;;13.17;8.37;;;7.70;99.90;;;;;;4993298;28;20180;-72
2023/05/03 03:57:43;;;;;;;9.87;8.23;;;7.60;99.90;;;;;;4993151;28;20184;-72
2023/05/03 04:00:09;;;;;;;9.13;7.00;;;7.60;99.90;;;;;;4992933;28;20254;-72
2023/05/03 04:02:35;;;;;;;10.63;9.00;;;7.60;99.90;;;;;;4993341;28;20176;-72
2023/05/03 04:05:00;;;;;;;9.17;8.13;;;7.70;99.90;;;;;;4993187;28;20442;-72
2023/05/03 04:07:26;;;;;;;9.07;7.20;;;7.60;99.90;;;;;;4993019;28;20264;-72
2023/05/03 04:09:52;;;;;;;9.43;6.80;;;7.60;99.90;;;;;;4992751;28;20254;-72
2023/05/03 04:12:17;;;;;;;8.40;7.30;;;7.60;99.90;;;;;;4993230;28;20164;-72
2023/05/03 04:14:43;;;;;;;10.73;7.30;;;7.50;99.90;;;;;;4992965;28;20438;-73
2023/05/03 04:17:08;;;;;;;8.90;7.40;;;7.50;99.90;;;;;;4992774;28;20212;-72
2023/05/03 04:19:34;;;;;;;11.90;8.00;;;7.50;99.90;;;;;;4992637;28;20172;-72
2023/05/03 04:22:00;;;;;;;13.50;7.83;;;7.70;99.90;;;;;;4992912;28;20672;-72
2023/05/03 04:24:29;;;;;;;11.43;8.70;;;7.80;99.90;;;;;;4992806;28;20203;-72
2023/05/03 04:26:55;;;;;;;11.70;10.40;;;7.90;99.90;;;;;;4992669;28;20695;-72
2023/05/03 04:29:21;;;;;;;10.70;9.10;;;8.10;99.90;;;;;;4992553;28;20514;-72
2023/05/03 04:31:46;;;;;;;9.60;8.60;;;8.20;99.90;;;;;;4992742;28;20545;-72
2023/05/03 04:34:14;;;;;;;14.83;9.97;;;8.20;99.90;;;;;;4992746;28;20202;-72
2023/05/03 04:36:45;;;;;;;12.80;9.97;;;8.40;99.90;;;;;;4992698;28;20565;-72
2023/05/03 04:39:11;;;;;;;11.50;8.50;;;8.40;99.90;;;;;;4992401;28;20852;-72
2023/05/03 04:41:37;;;;;;;9.80;8.10;;;8.50;99.90;;;;;;4991670;28;20517;-72
2023/05/03 04:44:04;;;;;;;9.53;8.50;;;8.50;99.90;;;;;;4992836;28;20454;-72
2023/05/03 04:46:30;;;;;;;15.97;8.97;;;8.50;99.90;;;;;;4992525;28;20613;-72
2023/05/03 04:48:56;;;;;;;11.40;8.87;;;8.60;99.90;;;;;;4992412;28;20419;-72
2023/05/03 04:51:22;;;;;;;9.97;8.70;;;8.70;99.90;;;;;;4992528;28;20168;-72
2023/05/03 04:53:48;;;;;;;13.07;9.63;;;8.70;99.90;;;;;;4992585;28;20461;-72
2023/05/03 04:56:14;;;;;;;9.90;8.80;;;8.80;99.90;;;;;;4992339;28;20434;-72
2023/05/03 04:58:39;;;;;;;19.20;13.50;;;9.00;99.90;;;;;;4992209;28;20337;-72
2023/05/03 05:01:05;;;;;;;14.97;12.07;;;9.10;99.90;;;;;;4992463;28;20427;-72
2023/05/03 05:03:31;;;;;;;21.30;14.83;;;9.00;99.90;;;;;;4992451;28;20175;-72
2023/05/03 05:05:57;;;;;;;18.63;13.73;;;9.10;99.90;;;;;;4992254;28;20812;-72
2023/05/03 05:08:22;;;;;;;16.53;12.93;;;9.20;99.90;;;;;;4992129;28;20175;-72
2023/05/03 05:10:48;;;;;;;18.67;13.10;;;9.30;99.90;;;;;;4992371;28;20199;-72
2023/05/03 05:13:14;;;;;;;16.07;13.00;;;9.30;99.90;;;;;;4992339;28;20544;-72
2023/05/03 05:15:39;;;;;;;18.70;13.20;;;9.40;99.90;;;;;;4992674;28;20569;-72
2023/05/03 05:18:05;;;;;;;15.47;12.40;;;9.50;99.90;;;;;;4991940;28;20198;-72
2023/05/03 05:20:30;;;;;;;14.23;12.70;;;9.60;99.90;;;;;;4992201;28;20187;-72
2023/05/03 05:22:56;;;;;;;14.10;12.60;;;9.70;99.90;;;;;;4990972;28;20275;-72
2023/05/03 05:25:22;;;;;;;16.17;12.77;;;9.80;99.90;;;;;;4992001;28;20207;-72
2023/05/03 05:27:47;;;;;;;15.90;9.53;;;10.00;99.90;;;;;;4992337;28;20171;-72
2023/05/03 05:30:13;;;;;;;12.10;9.93;;;10.10;99.90;;;;;;4991909;28;20222;-72
2023/05/03 05:32:38;;;;;;;13.97;9.83;;;10.10;99.90;;;;;;4992336;28;20172;-72
2023/05/03 05:35:04;;;;;;;13.07;10.63;;;10.10;99.90;;;;;;4992131;28;20167;-72
2023/05/03 05:37:30;;;;;;;13.20;10.53;;;10.10;99.90;;;;;;4992118;28;20172;-72
2023/05/03 05:39:55;;;;;;;13.43;10.27;;;10.20;99.90;;;;;;4991728;28;20183;-72
2023/05/03 05:42:21;;;;;;;14.30;9.70;;;10.40;99.90;;;;;;4992098;28;20255;-72
2023/05/03 05:44:47;;;;;;;11.90;10.67;;;10.70;99.90;;;;;;4992056;28;20202;-72
2023/05/03 05:47:12;;;;;;;16.10;11.67;;;10.90;99.90;;;;;;4992034;28;20192;-73
2023/05/03 05:49:38;;;;;;;12.20;10.53;;;11.20;99.90;;;;;;4991822;28;20182;-73
2023/05/03 05:52:03;;;;;;;15.07;12.17;;;11.30;99.90;;;;;;4991976;28;20167;-73
2023/05/03 05:54:29;;;;;;;14.90;9.83;;;11.40;99.90;;;;;;4993244;28;20266;-72
2023/05/03 05:56:55;;;;;;;11.27;10.17;;;11.60;99.90;;;;;;4965779;28;20267;-72
2023/05/03 05:59:21;;;;;;;17.30;11.10;;;11.60;99.90;;;;;;4956528;28;20185;-73
2023/05/03 06:01:46;;;;;;;12.87;10.60;;;11.80;99.90;;;;;;4971156;28;20427;-73
2023/05/03 06:04:12;;;;;;;14.27;11.80;;;11.90;99.90;;;;;;4962138;28;20184;-73
2023/05/03 06:06:38;;;;;;;11.90;10.60;;;11.80;99.90;;;;;;4956539;28;20193;-73
2023/05/03 06:09:04;;;;;;;16.10;11.07;;;11.70;99.90;;;;;;4956199;28;20425;-72
2023/05/03 06:11:30;;;;;;;12.87;11.30;;;11.70;99.90;;;;;;4956431;28;20180;-72
2023/05/03 06:13:56;;;;;;;11.83;9.87;;;11.80;99.90;;;;;;4956531;28;20177;-72
2023/05/03 06:16:25;;;;;;;14.47;10.97;;;12.00;99.90;;;;;;4955114;28;20209;-72
2023/05/03 06:18:50;;;;;;;13.90;11.57;;;12.20;99.90;;;;;;4956150;28;20508;-71
2023/05/03 06:21:16;;;;;;;12.90;10.70;;;12.40;99.90;;;;;;4956339;28;20953;-71
2023/05/03 06:23:42;;;;;;;14.20;11.33;;;12.50;99.90;;;;;;4955752;28;20184;-72
2023/05/03 06:26:07;;;;;;;11.50;10.20;;;12.50;99.90;;;;;;4956343;28;20205;-71
2023/05/03 06:28:34;;;;;;;12.43;10.63;;;12.50;99.90;;;;;;4955862;28;20200;-71
2023/05/03 06:31:01;;;;;;;16.63;11.00;;;12.50;99.90;;;;;;4956147;28;20200;-71
2023/05/03 06:33:26;;;;;;;11.80;10.57;;;12.70;99.90;;;;;;4956043;28;20420;-71
2023/05/03 06:35:52;;;;;;;13.10;10.73;;;12.90;99.90;;;;;;4955961;28;20445;-72
2023/05/03 06:38:18;;;;;;;14.27;11.10;;;13.10;99.90;;;;;;4955625;28;20177;-71
2023/05/03 06:40:47;;;;;;;11.47;10.37;;;13.30;99.90;;;;;;4955951;28;20428;-71
2023/05/03 06:43:13;;;;;;;13.77;12.03;;;13.40;99.90;;;;;;4955953;28;20200;-71
2023/05/03 06:45:40;;;;;;;12.37;11.07;;;13.40;99.90;;;;;;4955813;28;20526;-71
2023/05/03 06:48:06;;;;;;;13.17;11.73;;;13.60;99.90;;;;;;4955827;28;20169;-71
2023/05/03 06:50:32;;;;;;;12.47;10.90;;;13.80;99.90;;;;;;4955762;28;20424;-71
2023/05/03 06:52:57;;;;;;;13.03;11.60;;;14.00;99.90;;;;;;4955655;28;20424;-71
2023/05/03 06:55:23;;;;;;;13.17;10.83;;;14.00;99.90;;;;;;4955852;28;20201;-72
2023/05/03 06:57:48;;;;;;;15.13;11.10;;;14.00;99.90;;;;;;4955620;28;20176;-71
2023/05/03 07:00:14;;;;;;;13.13;10.87;;;13.90;99.90;;;;;;4955420;28;20204;-71
2023/05/03 07:02:41;;;;;;;14.10;11.83;;;13.70;99.90;;;;;;4955662;28;20867;-71
2023/05/03 07:05:07;;;;;;;12.60;11.43;;;13.70;99.90;;;;;;4954477;28;20456;-71
2023/05/03 07:07:33;;;;;;;18.30;12.03;;;13.70;99.90;;;;;;4955444;28;20424;-71
2023/05/03 07:09:58;;;;;;;11.60;10.40;;;13.60;99.90;;;;;;4955340;28;21017;-71
2023/05/03 07:12:26;;;;;;;14.27;12.03;;;13.60;99.90;;;;;;4955497;28;20483;-71
2023/05/03 07:14:53;;;;;;;12.40;11.10;;;13.60;99.90;;;;;;4955421;28;20166;-71
2023/05/03 07:17:18;;;;;;;12.83;11.40;;;13.80;99.90;;;;;;4955103;28;20456;-72
2023/05/03 07:19:44;;;;;;;12.67;11.10;;;14.10;99.90;;;;;;4954931;28;20761;-71
2023/05/03 07:22:10;;;;;;;11.70;10.50;;;14.40;99.90;;;;;;4955159;28;20201;-71
2023/05/03 07:24:36;;;;;;;12.70;10.47;;;14.70;99.90;;;;;;4955355;28;20522;-71
2023/05/03 07:27:02;;;;;;;14.57;12.30;;;15.00;99.90;;;;;;4955294;28;20440;-71
2023/05/03 07:29:27;;;;;;;15.57;13.20;;;15.30;99.90;;;;;;4954776;28;20197;-71
2023/05/03 07:31:53;;;;;;;13.83;11.50;;;15.60;99.90;;;;;;4955052;28;20960;-71
2023/05/03 07:34:19;;;;;;;15.23;13.50;;;15.70;99.90;;;;;;4955085;28;20173;-72
2023/05/03 07:36:44;;;;;;;12.43;11.20;;;15.90;99.90;;;;;;4955185;28;20226;-71
2023/05/03 07:39:10;;;;;;;13.10;11.80;;;16.00;99.90;;;;;;4954634;28;20686;-71
2023/05/03 07:41:36;;;;;;;11.37;10.27;;;16.00;99.90;;;;;;4954914;28;20169;-71
2023/05/03 07:44:02;;;;;;;13.67;11.93;;;16.00;99.90;;;;;;4954886;28;20441;-71
2023/05/03 07:46:27;;;;;;;12.30;11.13;;;16.20;99.90;;;;;;4954703;28;20205;-71
2023/05/03 07:48:53;;;;;;;13.27;11.87;;;16.10;99.90;;;;;;4954484;28;20184;-71
2023/05/03 07:51:19;;;;;;;12.57;11.33;;;16.20;99.90;;;;;;4954780;28;20631;-71
2023/05/03 07:53:45;;;;;;;15.00;10.70;;;16.50;99.90;;;;;;4954868;28;20215;-71
2023/05/03 07:56:10;;;;;;;11.70;10.50;;;16.60;99.90;;;;;;4954668;28;20448;-71
2023/05/03 07:58:36;;;;;;;14.10;11.37;;;16.70;99.90;;;;;;4954262;28;20268;-72
2023/05/03 08:01:02;;;;;;;13.33;11.27;;;16.90;99.90;;;;;;4954584;28;20184;-71
2023/05/03 08:03:28;;;;;;;12.83;11.27;;;17.00;99.90;;;;;;4954426;28;20682;-71
2023/05/03 08:05:53;;;;;;;13.07;11.43;;;17.00;99.90;;;;;;4954506;28;20460;-72
2023/05/03 08:08:19;;;;;;;15.00;13.40;;;17.20;99.90;;;;;;4954426;28;20200;-72
2023/05/03 08:10:45;;;;;;;11.63;10.43;;;17.00;99.90;;;;;;4953481;28;20180;-72
2023/05/03 08:13:11;;;;;;;11.77;10.77;;;17.10;99.90;;;;;;4954706;28;20177;-72
2023/05/03 08:15:36;;;;;;;13.50;11.20;;;17.50;99.90;;;;;;4954177;28;20556;-71
2023/05/03 08:18:02;;;;;;;12.63;11.33;;;17.80;99.90;;;;;;4954508;28;20191;-72
2023/05/03 08:20:28;;;;;;;11.80;10.70;;;18.30;99.90;;;;;;4954229;28;20173;-72
2023/05/03 08:22:55;;;;;;;11.90;10.70;;;18.60;99.90;;;;;;4954262;28;20611;-72
2023/05/03 08:25:22;;;;;;;11.70;10.47;;;18.70;99.90;;;;;;4954513;28;20514;-72
2023/05/03 08:27:48;;;;;;;12.03;10.83;;;18.60;99.90;;;;;;4954393;28;20424;-72
2023/05/03 08:30:13;;;;;;;12.13;11.00;;;18.10;99.90;;;;;;4954139;28;20508;-72
2023/05/03 08:32:39;;;;;;;11.80;10.70;;;18.20;99.90;;;;;;4954266;28;20176;-72
2023/05/03 08:35:05;;;;;;;11.60;10.40;;;18.10;99.90;;;;;;4954187;28;20173;-72
2023/05/03 08:37:45;;;;;;;16.17;11.37;;;18.00;99.90;;;;;;4954155;28;20177;-71
2023/05/03 08:40:12;;;;;;;12.93;11.63;;;17.60;99.90;;;;;;4953921;28;20442;-72
2023/05/03 08:42:41;;;;;;;13.37;11.70;;;17.50;99.90;;;;;;4954212;28;20431;-72
2023/05/03 08:45:14;;;;;;;13.30;11.70;;;17.70;99.90;;;;;;4953979;28;20491;-72
2023/05/03 08:47:43;;;;;;;13.27;10.97;;;17.90;99.90;;;;;;4954225;28;20440;-72
2023/05/03 08:50:10;;;;;;;11.63;10.60;;;18.20;99.90;;;;;;4953727;28;20424;-72
2023/05/03 08:52:36;;;;;;;11.40;10.40;;;18.70;99.90;;;;;;4954058;28;20820;-72
2023/05/03 08:55:02;;;;;;;11.50;10.30;;;18.80;99.90;;;;;;4954256;28;20488;-72
2023/05/03 08:57:28;;;;;;;11.70;10.60;;;19.00;99.90;;;;;;4954277;29;20499;-72
2023/05/03 08:59:57;;;;;;;12.70;10.93;;;19.50;99.90;;;;;;4953983;28;20416;-72
2023/05/03 09:02:23;;;;;;;11.17;9.97;;;19.90;99.90;;;;;;4954172;28;20435;-72
2023/05/03 09:04:48;;;;;;;10.63;9.53;;;20.20;99.90;;;;;;4953980;28;20461;-73
2023/05/03 09:07:15;;;;;;;13.10;11.77;;;20.30;99.90;;;;;;4953878;28;20193;-73
2023/05/03 09:09:42;;;;;;;10.13;9.13;;;20.30;99.90;;;;;;4953722;28;20702;-73
2023/05/03 09:12:07;;;;;;;10.20;9.20;;;20.50;99.90;;;;;;4954072;28;20435;-73
2023/05/03 09:14:43;;;;;;;12.27;11.17;;;20.70;99.90;;;;;;4953995;28;20416;-73
2023/05/03 09:17:22;;;;;;;16.00;10.33;;;20.50;99.90;;;;;;4953838;28;20235;-73
2023/05/03 09:19:53;;;;;;;11.57;10.33;;;20.30;99.90;;;;;;4954037;28;20801;-73
2023/05/03 09:22:19;;;;;;;11.30;10.30;;;20.20;99.90;;;;;;4953961;28;20427;-73
2023/05/03 09:24:55;;;;;;;12.40;9.80;;;20.20;99.90;;;;;;4953836;28;20456;-72
2023/05/03 09:27:21;;;;;;;10.37;9.47;;;20.40;99.90;;;;;;4953990;28;20455;-73
2023/05/03 09:29:47;;;;;;;11.10;10.20;;;20.80;99.90;;;;;;4957302;28;20482;-73
2023/05/03 09:32:13;;;;;;;11.00;9.83;;;20.90;99.90;;;;;;4957488;28;20503;-73
2023/05/03 09:34:39;;;;;;;12.37;11.17;;;20.90;99.90;;;;;;4957342;28;20499;-73
2023/05/03 09:37:05;;;;;;;10.50;9.63;;;21.10;99.20;;;;;;4957201;28;20561;-73
2023/05/03 09:39:31;;;;;;;9.93;9.03;;;22.00;97.90;;;;;;4956937;28;20184;-73
2023/05/03 09:41:57;;;;;;;10.60;9.33;;;23.00;95.80;;;;;;4957140;28;20423;-73
2023/05/03 09:44:43;;;;;;;9.70;8.67;;;23.30;92.90;;;;;;4957056;28;20263;-73
2023/05/03 09:47:09;;;;;;;11.07;10.07;;;23.40;91.40;;;;;;4956963;28;20942;-73
2023/05/03 09:49:38;;;;;;;11.17;8.47;;;23.20;91.20;;;;;;4956792;28;20428;-73
2023/05/03 09:52:05;;;;;;;8.70;7.90;;;23.10;90.90;;;;;;4956790;28;20435;-73
2023/05/03 09:54:30;;;;;;;10.30;9.40;;;23.20;90.70;;;;;;4956949;28;20766;-73
2023/05/03 09:56:56;;;;;;;8.77;7.97;;;22.80;91.20;;;;;;4956902;28;20448;-73
2023/05/03 09:59:22;;;;;;;10.10;9.23;;;23.20;90.60;;;;;;4957029;28;20248;-72
2023/05/03 10:01:51;;;;;;;10.53;9.53;;;24.00;87.70;;;;;;4956779;28;20176;-73
2023/05/03 10:04:19;;;;;;;9.17;8.33;;;23.90;84.20;;;;;;4956701;28;20416;-72
2023/05/03 10:06:47;;;;;;;8.57;7.87;;;24.40;84.40;;;;;;4956548;28;20476;-73
2023/05/03 10:09:19;;;;;;;9.30;8.50;;;24.70;82.80;;;;;;4956409;28;20413;-72
2023/05/03 10:11:51;;;;;;;10.17;9.37;;;25.00;80.20;;;;;;4956564;28;20435;-72
2023/05/03 10:14:16;;;;;;;8.60;7.77;;;24.90;78.20;;;;;;4956526;28;20471;-72
2023/05/03 10:16:47;;;;;;;8.90;8.20;;;24.20;80.30;;;;;;4956304;28;20826;-72
2023/05/03 10:19:26;;;;;;;8.80;8.10;;;23.30;84.20;;;;;;4956072;28;20259;-72
2023/05/03 10:22:01;;;;;;;9.70;8.90;;;22.70;84.10;;;;;;4956394;28;20775;-72
2023/05/03 10:24:26;;;;;;;8.10;7.40;;;23.30;84.00;;;;;;4955839;28;20415;-73
2023/05/03 10:26:56;;;;;;;9.00;8.30;;;24.70;81.50;;;;;;4956251;28;20463;-72
2023/05/03 10:29:47;;;;;;;8.07;7.37;;;26.10;75.00;;;;;;4956028;28;20197;-73
2023/05/03 10:32:32;;;;;;;8.67;7.87;;;27.30;70.60;;;;;;4956191;28;20452;-72
2023/05/03 10:35:09;;;;;;;9.63;7.90;;;26.40;66.00;;;;;;4956038;28;21013;-72
2023/05/03 10:37:35;;;;;;;9.87;8.97;;;24.70;69.30;;;;;;4956036;28;20436;-72
2023/05/03 10:40:12;;;;;;;9.57;8.77;;;24.20;73.10;;;;;;4955721;28;20428;-72
2023/05/03 10:42:41;;;;;;;9.17;8.37;;;24.00;72.80;;;;;;4955956;28;20455;-72
2023/05/03 10:45:08;;;;;;;8.90;8.20;;;23.30;75.10;;;;;;4955647;28;20463;-72
2023/05/03 10:47:34;;;;;;;8.17;7.47;;;22.60;77.10;;;;;;4955939;28;20812;-72
2023/05/03 10:50:15;;;;;;;8.83;8.13;;;21.90;80.60;;;;;;4955551;28;20421;-72
2023/05/03 10:52:40;;;;;;;8.50;7.80;;;22.30;81.70;;;;;;4955745;28;20428;-72
2023/05/03 10:55:11;;;;;;;8.10;7.37;;;23.40;78.30;;;;;;4955713;28;20429;-72
2023/05/03 10:57:39;;;;;;;8.90;8.23;;;23.70;76.20;;;;;;4955770;28;20256;-72
2023/05/03 11:00:21;;;;;;;8.50;7.77;;;23.00;76.70;;;;;;4955378;28;20428;-71
2023/05/03 11:03:10;;;;;;;8.33;7.70;;;22.60;78.70;;;;;;4955536;28;20957;-72
2023/05/03 11:05:37;;;;;;;9.10;7.70;;;22.60;77.50;;;;;;4955412;28;21016;-72
2023/05/03 11:08:20;;;;;;;7.80;7.20;;;23.30;77.00;;;;;;4955639;28;20417;-72
2023/05/03 11:10:48;;;;;;;7.40;6.80;;;25.00;71.30;;;;;;4955526;28;20436;-73
2023/05/03 11:13:14;;;;;;;7.67;6.97;;;25.20;69.80;;;;;;4955456;28;20474;-72
2023/05/03 11:15:40;;;;;;;7.60;7.00;;;24.80;67.50;;;;;;4955667;28;20499;-72
2023/05/03 11:18:07;;;;;;;7.63;6.90;;;25.50;65.40;;;;;;4955274;28;20509;-72
2023/05/03 11:20:34;;;;;;;7.97;7.37;;;25.00;63.90;;;;;;4955131;28;20177;-72
2023/05/03 11:22:59;;;;;;;6.90;6.30;;;24.20;65.60;;;;;;4955378;28;20424;-72
2023/05/03 11:25:25;;;;;;;6.80;6.33;;;25.00;65.80;;;;;;4954638;28;21021;-72
2023/05/03 11:27:51;;;;;;;8.07;7.40;;;27.50;62.60;;;;;;4955123;28;20725;-72
2023/05/03 11:30:17;;;;;;;6.20;5.73;;;29.40;57.10;;;;;;4954837;28;20424;-72
2023/05/03 11:32:43;;;;;;;6.13;5.17;;;30.20;52.80;;;;;;4955040;28;20611;-72
2023/05/03 11:35:09;;;;;;;6.47;6.00;;;29.60;52.30;;;;;;4954955;28;20260;-72
2023/05/03 11:37:35;;;;;;;6.50;5.97;;;28.40;53.00;;;;;;4955039;28;20859;-72
2023/05/03 11:40:01;;;;;;;7.13;6.43;;;26.30;55.00;;;;;;4954712;28;20456;-72
2023/05/03 11:42:27;;;;;;;6.30;5.73;;;26.30;56.20;;;;;;4954857;28;20658;-72
2023/05/03 11:44:53;;;;;;;6.80;6.30;;;28.10;53.80;;;;;;4954743;28;20215;-71
2023/05/03 11:47:20;;;;;;;6.67;6.07;;;27.90;51.90;;;;;;4954719;28;20440;-72
2023/05/03 11:49:56;;;;;;;9.87;6.27;;;26.70;52.70;;;;;;4954518;28;20417;-72
2023/05/03 11:52:24;;;;;;;6.27;5.73;;;27.30;53.20;;;;;;4954463;28;20420;-72
2023/05/03 11:54:53;;;;;;;6.37;5.87;;;28.60;50.80;;;;;;4954813;28;20540;-72
2023/05/03 11:57:20;;;;;;;5.90;5.50;;;29.60;49.80;;;;;;4954648;28;20448;-72
2023/05/03 11:59:46;;;;;;;6.67;6.07;;;29.60;48.90;;;;;;4954601;28;20503;-71
2023/05/03 12:02:13;;;;;;;6.70;6.20;;;28.30;48.50;;;;;;4954515;28;20435;-72
2023/05/03 12:04:41;;;;;;;6.53;6.03;;;27.90;48.70;;;;;;4954495;28;20532;-72
2023/05/03 12:07:08;;;;;;;6.17;5.67;;;28.60;48.70;;;;;;4954463;28;20480;-73
2023/05/03 12:09:34;;;;;;;6.43;5.93;;;28.50;48.30;;;;;;4954108;28;20419;-72
2023/05/03 12:12:01;;;;;;;6.13;5.20;;;28.30;47.50;;;;;;4954342;28;20499;-71
2023/05/03 12:14:27;;;;;;;5.80;5.17;;;28.00;47.60;;;;;;4954466;28;20424;-71
2023/05/03 12:16:53;;;;;;;6.23;5.07;;;26.30;48.70;;;;;;4954031;28;20459;-72
2023/05/03 12:19:29;;;;;;;4.63;4.23;;;26.70;49.10;;;;;;4954030;28;20432;-71
2023/05/03 12:21:55;;;;;;;4.73;4.43;;;28.70;46.20;;;;;;4954228;28;20420;-72
2023/05/03 12:24:22;;;;;;;5.77;5.37;;;29.10;46.00;;;;;;4953609;28;20515;-72
2023/05/03 12:26:50;;;;;;;5.23;4.83;;;31.00;44.00;;;;;;4954171;28;20498;-72
2023/05/03 12:29:15;;;;;;;4.87;4.47;;;33.10;41.50;;;;;;4953875;28;20416;-72
2023/05/03 12:31:41;;;;;;;7.23;6.53;;;33.60;54.10;;;;;;4954048;28;20973;-71
2023/05/03 12:34:07;;;;;;;6.33;5.90;;;31.40;55.50;;;;;;4954112;28;20259;-72
2023/05/03 12:36:33;;;;;;;6.70;6.10;;;29.10;58.20;;;;;;4953945;28;21046;-72
2023/05/03 12:39:00;;;;;;;7.93;7.13;;;27.90;59.40;;;;;;4953786;28;20223;-72
2023/05/03 12:41:28;;;;;;;7.00;6.40;;;29.00;59.10;;;;;;4954067;28;20520;-71